Cap Roberta — A8MG9 — position and weather

sailwx.info

Track history (hours):
 
Tides and Currents Weather Stations Pressure Air Temp Water Temp Dewpoint Dewpoint Depression Visibility Wind Speed Wind Dir Waves Ship Positions

Cap Roberta

Last reported at 2018-Feb-20 11:30 UTC. Time now 2018-Feb-20 11:34 UTC.
Position N 51°54' E 001°42'.

Length 224 m; draft 10.7 m.

Type: Ship. MMSI: 636017361.

Date/timePositionNaut miles runAvg speedWind from/ knotsBaromVisibWave heightAir tempDewpointWater temp
2018-Feb-20 11:30N 51°54' E 001°42'4 7.8
2018-Feb-20 11:00N 51°52' E 001°47'4 7.4
2018-Feb-20 10:31N 51°48' E 001°48'4 7.8
2018-Feb-20 09:59N 51°44' E 001°49'4 8.4
2018-Feb-20 09:31N 51°40' E 001°50'4 8.7
2018-Feb-20 09:00N 51°36' E 001°52'4 8.8
2018-Feb-20 08:30N 51°32' E 001°55'5 9.2
2018-Feb-20 08:00N 51°28' E 001°59'5 9.3
2018-Feb-20 07:30N 51°25' E 002°04'5 9.3
2018-Feb-20 07:00N 51°22' E 002°11'4 7.7
2018-Feb-20 06:31N 51°21' E 002°16'3 6.6
2018-Feb-20 06:01N 51°21' E 002°21'3 6.4
2018-Feb-20 05:30N 51°22' E 002°26'3 5.9
2018-Feb-20 05:01N 51°23' E 002°31'3 6.2
2018-Feb-20 04:29N 51°23' E 002°36'3 6.0
2018-Feb-20 03:59N 51°23' E 002°41'3 6.8
2018-Feb-20 03:31N 51°22' E 002°46'713.0
2018-Feb-20 03:00N 51°23' E 002°56'714.3
2018-Feb-20 02:30N 51°24' E 003°08'714.2
2018-Feb-20 02:00N 51°25' E 003°19'715.0
2018-Feb-20 01:31N 51°25' E 003°31'5 9.3
2018-Feb-20 01:00N 51°26' E 003°38'713.6
2018-Feb-20 00:30N 51°22' E 003°46'713.8
2018-Feb-20 00:00N 51°23' E 003°57'3 6.9
2018-Feb-19 23:30N 51°23' E 004°02'713.2
2018-Feb-19 23:01N 51°23' E 004°13'3 6.2
2018-Feb-19 22:29N 51°21' E 004°17'0 0.0
2018-Feb-19 22:01N 51°21' E 004°17'0 0.9
2018-Feb-19 21:30N 51°21' E 004°18'3 6.0
2018-Feb-19 21:00N 51°18' E 004°20'3 5.2
2018-Feb-19 20:30N 51°15' E 004°21'2 3.1
2018-Feb-19 20:00N 51°15' E 004°24'1 1.5
2018-Feb-19 19:30N 51°15' E 004°24'0 0.3
2018-Feb-19 18:58N 51°16' E 004°24'0 0.0
2018-Feb-19 18:25N 51°16' E 004°24'0 0.0
2018-Feb-19 18:00N 51°16' E 004°24'0 0.0
2018-Feb-19 17:30N 51°16' E 004°24'0 0.0
2018-Feb-19 17:00N 51°16' E 004°24'0 0.0
2018-Feb-19 16:30N 51°16' E 004°24'0 0.0
2018-Feb-19 16:00N 51°16' E 004°24'0 0.0
2018-Feb-19 15:29N 51°16' E 004°24'0 0.0
2018-Feb-19 14:56N 51°16' E 004°24'0 0.0
2018-Feb-19 14:29N 51°16' E 004°24'0 0.0
2018-Feb-19 13:59N 51°16' E 004°24'0 0.0
2018-Feb-19 13:30N 51°16' E 004°24'0 0.0
2018-Feb-19 12:58N 51°16' E 004°24'0 0.0
2018-Feb-19 12:28N 51°16' E 004°24'0 0.0
2018-Feb-19 11:58N 51°16' E 004°24'0 0.0
2018-Feb-19 11:28N 51°16' E 004°24'0 0.0
2018-Feb-19 11:00N 51°16' E 004°24'0 0.0
2018-Feb-19 10:30N 51°16' E 004°24'0 0.0
2018-Feb-19 10:00N 51°16' E 004°24'0 0.0
2018-Feb-19 09:30N 51°16' E 004°24'0 0.0
2018-Feb-19 09:00N 51°16' E 004°24'0 0.0
2018-Feb-19 08:23N 51°16' E 004°24'0 0.0
2018-Feb-19 07:56N 51°16' E 004°24'0 0.0
2018-Feb-19 07:29N 51°16' E 004°24'0 0.0
2018-Feb-19 06:59N 51°16' E 004°24'0 0.0
2018-Feb-19 06:28N 51°16' E 004°24'0 0.0
2018-Feb-19 05:55N 51°16' E 004°24'0 0.0
2018-Feb-19 05:28N 51°16' E 004°24'0 0.0
2018-Feb-19 04:58N 51°16' E 004°24'0 0.0
2018-Feb-19 04:28N 51°16' E 004°24'0 0.0
2018-Feb-19 04:00N 51°16' E 004°24'0 0.0
2018-Feb-19 03:30N 51°16' E 004°24'0 0.0
2018-Feb-19 03:00N 51°16' E 004°24'0 0.0
2018-Feb-19 02:30N 51°16' E 004°24'0 0.0
2018-Feb-19 02:00N 51°16' E 004°24'0 0.0
2018-Feb-19 01:29N 51°16' E 004°24'0 0.0
2018-Feb-19 00:56N 51°16' E 004°24'0 0.0
2018-Feb-19 00:26N 51°16' E 004°24'0 0.0
2018-Feb-18 23:59N 51°16' E 004°24'0 0.0
2018-Feb-18 23:22N 51°16' E 004°24'0 0.0
2018-Feb-18 22:55N 51°16' E 004°24'0 0.0
2018-Feb-18 22:28N 51°16' E 004°24'0 0.0
2018-Feb-18 21:52N 51°16' E 004°24'0 0.0
2018-Feb-18 21:30N 51°16' E 004°24'0 0.0
2018-Feb-18 21:00N 51°16' E 004°24'0 0.0
2018-Feb-18 20:30N 51°16' E 004°24'0 0.0
2018-Feb-18 20:00N 51°16' E 004°24'0 0.0
2018-Feb-18 19:30N 51°16' E 004°24'0 0.0
2018-Feb-18 18:50N 51°16' E 004°24'0 0.0
2018-Feb-18 18:29N 51°16' E 004°24'0 0.0
2018-Feb-18 17:56N 51°16' E 004°24'0 0.0
2018-Feb-18 17:29N 51°16' E 004°24'0 0.0
2018-Feb-18 16:59N 51°16' E 004°24'0 0.0
2018-Feb-18 16:28N 51°16' E 004°24'0 0.0
2018-Feb-18 15:58N 51°16' E 004°24'0 0.0
2018-Feb-18 15:28N 51°16' E 004°24'0 0.0
2018-Feb-18 14:58N 51°16' E 004°24'0 0.0
2018-Feb-18 14:28N 51°16' E 004°24'0 0.0
2018-Feb-18 14:00N 51°16' E 004°24'0 0.0
2018-Feb-18 13:30N 51°16' E 004°24'0 0.0
2018-Feb-18 13:00N 51°16' E 004°24'0 0.0
2018-Feb-18 12:30N 51°16' E 004°24'0 0.0
2018-Feb-18 11:59N 51°16' E 004°24'0 0.0
2018-Feb-18 11:29N 51°16' E 004°24'0 0.0
2018-Feb-18 11:00N 51°16' E 004°24'1 1.5
2018-Feb-18 10:30N 51°15' E 004°24'1 2.6
2018-Feb-18 10:00N 51°15' E 004°22'2 3.1
2018-Feb-18 09:30N 51°16' E 004°21'3 5.0
2018-Feb-18 08:59N 51°18' E 004°19'3 5.8
2018-Feb-18 08:31N 51°21' E 004°17'0 0.1
2018-Feb-18 07:59N 51°21' E 004°17'0 0.0
2018-Feb-18 07:30N 51°21' E 004°17'0 0.2
2018-Feb-18 07:00N 51°21' E 004°17'3 5.3
2018-Feb-18 06:30N 51°22' E 004°13'510.0
2018-Feb-18 06:00N 51°22' E 004°05'511.0
2018-Feb-18 05:30N 51°26' E 003°59'713.5
2018-Feb-18 05:00N 51°21' E 003°51'713.0
2018-Feb-18 04:31N 51°24' E 003°43'510.1
2018-Feb-18 04:00N 51°26' E 003°35'4 7.6
2018-Feb-18 03:30N 51°25' E 003°29'613.0
2018-Feb-18 03:00N 51°24' E 003°18'815.1
2018-Feb-18 02:31N 51°24' E 003°06'714.5
2018-Feb-18 02:00N 51°22' E 002°55'713.8
2018-Feb-18 01:30N 51°21' E 002°44'4 7.4
2018-Feb-18 01:00N 51°22' E 002°38'2 4.1
2018-Feb-18 00:30N 51°22' E 002°35'2 3.1
2018-Feb-18 00:00N 51°23' E 002°32'3 6.6
2018-Feb-17 23:30N 51°21' E 002°27'3 6.0
2018-Feb-17 23:00N 51°20' E 002°23'714.2
2018-Feb-17 22:31N 51°16' E 002°14'815.2
2018-Feb-17 22:00N 51°13' E 002°03'714.7
2018-Feb-17 21:30N 51°10' E 001°52'714.0
2018-Feb-17 21:00N 51°06' E 001°43'713.4
2018-Feb-17 20:30N 51°01' E 001°36'713.7
2018-Feb-17 20:00N 50°55' E 001°29'813.9
2018-Feb-17 19:27N 50°49' E 001°24'714.8
2018-Feb-17 19:00N 50°42' E 001°21'714.6
2018-Feb-17 18:30N 50°37' E 001°13'815.3
2018-Feb-17 17:58N 50°32' E 001°03'915.3
2018-Feb-17 17:24N 50°29' E 000°50'715.6
2018-Feb-17 16:58N 50°28' E 000°40'715.6
2018-Feb-17 16:30N 50°26' E 000°28'815.4
2018-Feb-17 16:00N 50°24' E 000°17'815.3
2018-Feb-17 15:30N 50°22' E 000°05'815.4
2018-Feb-17 15:00N 50°20' W 000°06'815.2
2018-Feb-17 14:30N 50°18' W 000°18'1512.6
2018-Feb-17 13:20N 50°14' W 000°40'412.9
2018-Feb-17 13:00N 50°12' W 000°46'1313.8
2018-Feb-17 12:05N 50°08' W 001°05'114.5
2018-Feb-17 12:00N 50°08' W 001°07'715.0
2018-Feb-17 11:30N 50°06' W 001°18'815.8
2018-Feb-17 11:01N 50°03' W 001°30'816.3
2018-Feb-17 10:30N 50°01' W 001°42'917.2
2018-Feb-17 10:01N 49°59' W 001°55'1020.2
2018-Feb-17 09:31N 49°56' W 002°10'1920.4
2018-Feb-17 08:35N 49°51' W 002°38'220.6
2018-Feb-17 08:30N 49°51' W 002°41'1120.4
2018-Feb-17 07:57N 49°47' W 002°57'1120.1
2018-Feb-17 07:25N 49°41' W 003°11'8319.8
2018-Feb-17 03:12N 48°59' W 005°02'518.3
2018-Feb-17 02:57N 48°57' W 005°08'817.7
2018-Feb-17 02:29N 48°53' W 005°19'816.6
2018-Feb-17 02:00N 48°49' W 005°29'814.0
2018-Feb-17 01:26N 48°44' W 005°38'818.5
2018-Feb-17 01:00N 48°37' W 005°44'1418.4
2018-Feb-17 00:13N 48°24' W 005°54'  
2018-Feb-13 10:45N 39°28' W 027°24'520.0
2018-Feb-13 10:28N 39°26' W 027°31'919.9
2018-Feb-13 10:00N 39°23' W 027°42'1019.5
2018-Feb-13 09:30N 39°20' W 027°54'1019.4
2018-Feb-13 09:00N 39°17' W 028°06'1019.6
2018-Feb-13 08:30N 39°14' W 028°18'1019.7
2018-Feb-13 08:00N 39°11' W 028°30'1019.5
2018-Feb-13 07:30N 39°08' W 028°42'1019.5
2018-Feb-13 07:00N 39°04' W 028°54'1019.2
2018-Feb-13 06:30N 39°01' W 029°06'1019.4
2018-Feb-13 06:00N 38°58' W 029°17'1019.3
2018-Feb-13 05:30N 38°55' W 029°29'1019.4
2018-Feb-13 05:00N 38°51' W 029°41'1019.7
2018-Feb-13 04:30N 38°48' W 029°53'1019.6
2018-Feb-13 04:00N 38°44' W 030°04'1019.6
2018-Feb-13 03:30N 38°41' W 030°16'1019.9
2018-Feb-13 03:00N 38°38' W 030°28'1019.9
2018-Feb-13 02:30N 38°34' W 030°40'  
Track history (hours):
 
Tides and Currents Weather Stations Pressure Air Temp Water Temp Dewpoint Dewpoint Depression Visibility Wind Speed Wind Dir Waves Ship Positions

Cap Roberta

Last reported at 2018-Feb-20 11:30 UTC. Time now 2018-Feb-20 11:34 UTC.
Position N 51°54' E 001°42'.

Length 224 m; draft 10.7 m.

Type: Ship. MMSI: 636017361.

Date/timePositionNaut miles runAvg speedWind from/ knotsBaromVisibWave heightAir tempDewpointWater temp
2018-Feb-20 11:30N 51°54' E 001°42'4 7.8
2018-Feb-20 11:00N 51°52' E 001°47'4 7.4
2018-Feb-20 10:31N 51°48' E 001°48'4 7.8
2018-Feb-20 09:59N 51°44' E 001°49'4 8.4
2018-Feb-20 09:31N 51°40' E 001°50'4 8.7
2018-Feb-20 09:00N 51°36' E 001°52'4 8.8
2018-Feb-20 08:30N 51°32' E 001°55'5 9.2
2018-Feb-20 08:00N 51°28' E 001°59'5 9.3
2018-Feb-20 07:30N 51°25' E 002°04'5 9.3
2018-Feb-20 07:00N 51°22' E 002°11'4 7.7
2018-Feb-20 06:31N 51°21' E 002°16'3 6.6
2018-Feb-20 06:01N 51°21' E 002°21'3 6.4
2018-Feb-20 05:30N 51°22' E 002°26'3 5.9
2018-Feb-20 05:01N 51°23' E 002°31'3 6.2
2018-Feb-20 04:29N 51°23' E 002°36'3 6.0
2018-Feb-20 03:59N 51°23' E 002°41'3 6.8
2018-Feb-20 03:31N 51°22' E 002°46'713.0
2018-Feb-20 03:00N 51°23' E 002°56'714.3
2018-Feb-20 02:30N 51°24' E 003°08'714.2
2018-Feb-20 02:00N 51°25' E 003°19'715.0
2018-Feb-20 01:31N 51°25' E 003°31'5 9.3
2018-Feb-20 01:00N 51°26' E 003°38'713.6
2018-Feb-20 00:30N 51°22' E 003°46'713.8
2018-Feb-20 00:00N 51°23' E 003°57'3 6.9
2018-Feb-19 23:30N 51°23' E 004°02'713.2
2018-Feb-19 23:01N 51°23' E 004°13'3 6.2
2018-Feb-19 22:29N 51°21' E 004°17'0 0.0
2018-Feb-19 22:01N 51°21' E 004°17'0 0.9
2018-Feb-19 21:30N 51°21' E 004°18'3 6.0
2018-Feb-19 21:00N 51°18' E 004°20'3 5.2
2018-Feb-19 20:30N 51°15' E 004°21'2 3.1
2018-Feb-19 20:00N 51°15' E 004°24'1 1.5
2018-Feb-19 19:30N 51°15' E 004°24'0 0.3
2018-Feb-19 18:58N 51°16' E 004°24'0 0.0
2018-Feb-19 18:25N 51°16' E 004°24'0 0.0
2018-Feb-19 18:00N 51°16' E 004°24'0 0.0
2018-Feb-19 17:30N 51°16' E 004°24'0 0.0
2018-Feb-19 17:00N 51°16' E 004°24'0 0.0
2018-Feb-19 16:30N 51°16' E 004°24'0 0.0
2018-Feb-19 16:00N 51°16' E 004°24'0 0.0
2018-Feb-19 15:29N 51°16' E 004°24'0 0.0
2018-Feb-19 14:56N 51°16' E 004°24'0 0.0
2018-Feb-19 14:29N 51°16' E 004°24'0 0.0
2018-Feb-19 13:59N 51°16' E 004°24'0 0.0
2018-Feb-19 13:30N 51°16' E 004°24'0 0.0
2018-Feb-19 12:58N 51°16' E 004°24'0 0.0
2018-Feb-19 12:28N 51°16' E 004°24'0 0.0
2018-Feb-19 11:58N 51°16' E 004°24'0 0.0
2018-Feb-19 11:28N 51°16' E 004°24'0 0.0
2018-Feb-19 11:00N 51°16' E 004°24'0 0.0
2018-Feb-19 10:30N 51°16' E 004°24'0 0.0
2018-Feb-19 10:00N 51°16' E 004°24'0 0.0
2018-Feb-19 09:30N 51°16' E 004°24'0 0.0
2018-Feb-19 09:00N 51°16' E 004°24'0 0.0
2018-Feb-19 08:23N 51°16' E 004°24'0 0.0
2018-Feb-19 07:56N 51°16' E 004°24'0 0.0
2018-Feb-19 07:29N 51°16' E 004°24'0 0.0
2018-Feb-19 06:59N 51°16' E 004°24'0 0.0
2018-Feb-19 06:28N 51°16' E 004°24'0 0.0
2018-Feb-19 05:55N 51°16' E 004°24'0 0.0
2018-Feb-19 05:28N 51°16' E 004°24'0 0.0
2018-Feb-19 04:58N 51°16' E 004°24'0 0.0
2018-Feb-19 04:28N 51°16' E 004°24'0 0.0
2018-Feb-19 04:00N 51°16' E 004°24'0 0.0
2018-Feb-19 03:30N 51°16' E 004°24'0 0.0
2018-Feb-19 03:00N 51°16' E 004°24'0 0.0
2018-Feb-19 02:30N 51°16' E 004°24'0 0.0
2018-Feb-19 02:00N 51°16' E 004°24'0 0.0
2018-Feb-19 01:29N 51°16' E 004°24'0 0.0
2018-Feb-19 00:56N 51°16' E 004°24'0 0.0
2018-Feb-19 00:26N 51°16' E 004°24'0 0.0
2018-Feb-18 23:59N 51°16' E 004°24'0 0.0
2018-Feb-18 23:22N 51°16' E 004°24'0 0.0
2018-Feb-18 22:55N 51°16' E 004°24'0 0.0
2018-Feb-18 22:28N 51°16' E 004°24'0 0.0
2018-Feb-18 21:52N 51°16' E 004°24'0 0.0
2018-Feb-18 21:30N 51°16' E 004°24'0 0.0
2018-Feb-18 21:00N 51°16' E 004°24'0 0.0
2018-Feb-18 20:30N 51°16' E 004°24'0 0.0
2018-Feb-18 20:00N 51°16' E 004°24'0 0.0
2018-Feb-18 19:30N 51°16' E 004°24'0 0.0
2018-Feb-18 18:50N 51°16' E 004°24'0 0.0
2018-Feb-18 18:29N 51°16' E 004°24'0 0.0
2018-Feb-18 17:56N 51°16' E 004°24'0 0.0
2018-Feb-18 17:29N 51°16' E 004°24'0 0.0
2018-Feb-18 16:59N 51°16' E 004°24'0 0.0
2018-Feb-18 16:28N 51°16' E 004°24'0 0.0
2018-Feb-18 15:58N 51°16' E 004°24'0 0.0
2018-Feb-18 15:28N 51°16' E 004°24'0 0.0
2018-Feb-18 14:58N 51°16' E 004°24'0 0.0
2018-Feb-18 14:28N 51°16' E 004°24'0 0.0
2018-Feb-18 14:00N 51°16' E 004°24'0 0.0
2018-Feb-18 13:30N 51°16' E 004°24'0 0.0
2018-Feb-18 13:00N 51°16' E 004°24'0 0.0
2018-Feb-18 12:30N 51°16' E 004°24'0 0.0
2018-Feb-18 11:59N 51°16' E 004°24'0 0.0
2018-Feb-18 11:29N 51°16' E 004°24'0 0.0
2018-Feb-18 11:00N 51°16' E 004°24'1 1.5
2018-Feb-18 10:30N 51°15' E 004°24'1 2.6
2018-Feb-18 10:00N 51°15' E 004°22'2 3.1
2018-Feb-18 09:30N 51°16' E 004°21'3 5.0
2018-Feb-18 08:59N 51°18' E 004°19'3 5.8
2018-Feb-18 08:31N 51°21' E 004°17'0 0.1
2018-Feb-18 07:59N 51°21' E 004°17'0 0.0
2018-Feb-18 07:30N 51°21' E 004°17'0 0.2
2018-Feb-18 07:00N 51°21' E 004°17'3 5.3
2018-Feb-18 06:30N 51°22' E 004°13'510.0
2018-Feb-18 06:00N 51°22' E 004°05'511.0
2018-Feb-18 05:30N 51°26' E 003°59'713.5
2018-Feb-18 05:00N 51°21' E 003°51'713.0
2018-Feb-18 04:31N 51°24' E 003°43'510.1
2018-Feb-18 04:00N 51°26' E 003°35'4 7.6
2018-Feb-18 03:30N 51°25' E 003°29'613.0
2018-Feb-18 03:00N 51°24' E 003°18'815.1
2018-Feb-18 02:31N 51°24' E 003°06'714.5
2018-Feb-18 02:00N 51°22' E 002°55'713.8
2018-Feb-18 01:30N 51°21' E 002°44'4 7.4
2018-Feb-18 01:00N 51°22' E 002°38'2 4.1
2018-Feb-18 00:30N 51°22' E 002°35'2 3.1
2018-Feb-18 00:00N 51°23' E 002°32'3 6.6
2018-Feb-17 23:30N 51°21' E 002°27'3 6.0
2018-Feb-17 23:00N 51°20' E 002°23'714.2
2018-Feb-17 22:31N 51°16' E 002°14'815.2
2018-Feb-17 22:00N 51°13' E 002°03'714.7
2018-Feb-17 21:30N 51°10' E 001°52'714.0
2018-Feb-17 21:00N 51°06' E 001°43'713.4
2018-Feb-17 20:30N 51°01' E 001°36'713.7
2018-Feb-17 20:00N 50°55' E 001°29'813.9
2018-Feb-17 19:27N 50°49' E 001°24'714.8
2018-Feb-17 19:00N 50°42' E 001°21'714.6
2018-Feb-17 18:30N 50°37' E 001°13'815.3
2018-Feb-17 17:58N 50°32' E 001°03'915.3
2018-Feb-17 17:24N 50°29' E 000°50'715.6
2018-Feb-17 16:58N 50°28' E 000°40'715.6
2018-Feb-17 16:30N 50°26' E 000°28'815.4
2018-Feb-17 16:00N 50°24' E 000°17'815.3
2018-Feb-17 15:30N 50°22' E 000°05'815.4
2018-Feb-17 15:00N 50°20' W 000°06'815.2
2018-Feb-17 14:30N 50°18' W 000°18'1512.6
2018-Feb-17 13:20N 50°14' W 000°40'412.9
2018-Feb-17 13:00N 50°12' W 000°46'1313.8
2018-Feb-17 12:05N 50°08' W 001°05'114.5
2018-Feb-17 12:00N 50°08' W 001°07'715.0
2018-Feb-17 11:30N 50°06' W 001°18'815.8
2018-Feb-17 11:01N 50°03' W 001°30'816.3
2018-Feb-17 10:30N 50°01' W 001°42'917.2
2018-Feb-17 10:01N 49°59' W 001°55'1020.2
2018-Feb-17 09:31N 49°56' W 002°10'1920.4
2018-Feb-17 08:35N 49°51' W 002°38'220.6
2018-Feb-17 08:30N 49°51' W 002°41'1120.4
2018-Feb-17 07:57N 49°47' W 002°57'1120.1
2018-Feb-17 07:25N 49°41' W 003°11'8319.8
2018-Feb-17 03:12N 48°59' W 005°02'518.3
2018-Feb-17 02:57N 48°57' W 005°08'817.7
2018-Feb-17 02:29N 48°53' W 005°19'816.6
2018-Feb-17 02:00N 48°49' W 005°29'814.0
2018-Feb-17 01:26N 48°44' W 005°38'818.5
2018-Feb-17 01:00N 48°37' W 005°44'1418.4
2018-Feb-17 00:13N 48°24' W 005°54'  
2018-Feb-13 10:45N 39°28' W 027°24'520.0
2018-Feb-13 10:28N 39°26' W 027°31'919.9
2018-Feb-13 10:00N 39°23' W 027°42'1019.5
2018-Feb-13 09:30N 39°20' W 027°54'1019.4
2018-Feb-13 09:00N 39°17' W 028°06'1019.6
2018-Feb-13 08:30N 39°14' W 028°18'1019.7
2018-Feb-13 08:00N 39°11' W 028°30'1019.5
2018-Feb-13 07:30N 39°08' W 028°42'1019.5
2018-Feb-13 07:00N 39°04' W 028°54'1019.2
2018-Feb-13 06:30N 39°01' W 029°06'1019.4
2018-Feb-13 06:00N 38°58' W 029°17'1019.3
2018-Feb-13 05:30N 38°55' W 029°29'1019.4
2018-Feb-13 05:00N 38°51' W 029°41'1019.7
2018-Feb-13 04:30N 38°48' W 029°53'1019.6
2018-Feb-13 04:00N 38°44' W 030°04'1019.6
2018-Feb-13 03:30N 38°41' W 030°16'1019.9
2018-Feb-13 03:00N 38°38' W 030°28'1019.9
2018-Feb-13 02:30N 38°34' W 030°40'  

Dump ship's entire track history